createdAt,value
2022-11-11T15:13:08.877Z,13.83
2022-11-11T15:25:01.112Z,13.77
2022-11-11T15:37:36.025Z,13.79
2022-11-11T16:01:08.701Z,13.80
2022-11-11T16:06:16.094Z,13.65
2022-11-11T16:11:35.946Z,13.79
2022-11-11T16:16:46.183Z,13.76
2022-11-11T16:21:51.424Z,13.64
2022-11-11T16:26:50.617Z,13.73
2022-11-11T16:31:55.331Z,13.85
2022-11-11T16:37:21.217Z,13.71
2022-11-11T16:42:31.271Z,13.64
2022-11-11T16:47:33.537Z,13.82
2022-11-11T16:52:52.152Z,13.77
2022-11-11T17:15:10.362Z,13.80
2022-11-11T17:20:19.728Z,13.67
2022-11-11T17:25:16.890Z,13.62
2022-11-11T17:30:28.674Z,13.79
2022-11-11T17:35:25.801Z,13.63
2022-11-11T17:50:49.658Z,13.60
2022-11-11T17:55:46.607Z,13.59
2022-11-11T18:00:46.689Z,13.59
2022-11-11T18:05:43.855Z,13.71
2022-11-11T18:10:40.878Z,13.56
2022-11-11T18:15:38.010Z,13.57
2022-11-11T18:20:35.220Z,13.52
2022-11-11T18:25:32.504Z,13.52
2022-11-11T18:30:39.343Z,13.55
2022-11-11T18:35:38.603Z,13.62
2022-11-11T18:40:38.485Z,13.52
2022-11-11T18:45:41.161Z,13.49
2022-11-11T18:50:40.427Z,13.63
2022-11-11T18:55:41.972Z,13.53
2022-11-11T19:00:41.495Z,13.42
2022-11-11T19:05:40.187Z,13.43
2022-11-11T19:10:40.036Z,13.44
2022-11-11T19:15:38.265Z,13.32
2022-11-11T19:20:44.305Z,13.29
2022-11-11T19:25:43.917Z,13.39
2022-11-11T19:30:45.256Z,13.27
2022-11-11T19:35:42.330Z,13.27
2022-11-11T19:40:43.226Z,13.27
2022-11-11T19:45:39.779Z,13.30
2022-11-11T19:50:39.268Z,13.10
2022-11-11T19:55:36.138Z,13.21
2022-11-11T20:00:37.061Z,12.99
2022-11-11T20:05:36.525Z,13.03
2022-11-11T20:10:48.510Z,12.98
2022-11-11T20:15:47.240Z,12.85
2022-11-11T20:20:51.326Z,12.88
2022-11-11T20:25:47.980Z,12.99
2022-11-11T20:30:46.670Z,13.01
2022-11-11T20:35:43.227Z,12.86
2022-11-11T20:40:41.159Z,13.05
2022-11-11T20:45:38.305Z,12.92
2022-11-11T20:50:34.930Z,13.10
2022-11-11T20:55:35.164Z,13.11
2022-11-11T21:00:31.965Z,13.08
2022-11-11T21:05:28.591Z,13.10
2022-11-11T21:10:44.781Z,13.17
2022-11-11T21:33:35.255Z,13.00
2022-11-11T21:38:36.683Z,12.98
2022-11-11T21:43:50.043Z,12.99
2022-11-11T21:49:20.975Z,13.10
2022-11-11T21:54:19.714Z,13.16
2022-11-11T21:59:16.766Z,13.10
2022-11-11T22:04:16.443Z,13.18
2022-11-11T22:09:13.126Z,13.12
2022-11-11T22:14:12.018Z,13.16
2022-11-11T22:19:25.341Z,12.94
2022-11-11T22:24:24.461Z,12.81
2022-11-11T22:29:21.054Z,12.93
2022-11-11T22:34:17.743Z,12.84
2022-11-11T22:39:22.868Z,12.73
2022-11-11T22:44:20.428Z,12.62
2022-11-11T22:49:16.996Z,12.45
2022-11-11T22:54:23.878Z,12.42
2022-11-11T22:59:20.599Z,12.39
2022-11-11T23:04:24.813Z,12.37
2022-11-11T23:09:21.552Z,12.12
2022-11-11T23:14:23.321Z,12.22
2022-11-11T23:19:34.778Z,12.20
2022-11-11T23:24:35.986Z,12.20
2022-11-11T23:29:32.531Z,12.15
2022-11-11T23:34:51.016Z,12.16
2022-11-11T23:39:50.743Z,12.24
2022-11-11T23:44:49.445Z,12.25
2022-11-11T23:49:45.930Z,12.13
2022-11-11T23:55:04.833Z,12.04
